GOTT

Tambacounda Airport

Tambacounda, Senegal
METAR GOTT 191500Z 36010KT CAVOK 32/13 Q1011
Observed Flight Rules
Jan-19 @ 15:00 UTC (31 minutes ago) Visual Flight Rules
Wind Visibility Clouds
360° at 10 knots 10,000+ meters
  • Clear skies
Temperatures Readings
Current 32°C / 90°F
Dewpoint 13°C / 55°F
Humidity 31%
Altimeter 29.85" Hg
Pressure 1011 hPa
Elevation 50
METAR GOTT 191500Z 36010KT CAVOK 32/13 Q1011
Observed Flight Rules
Jan-19 @ 15:00 UTC
(31 minutes ago)
VFR
Wind Visibility
360° at 10 knots 10,000+ meters
Clouds
  • Clear skies
Temperature Dewpoint
32°C / 90°F 13°C / 55°F
Humidity Altimeter Pressure
31% 29.85" Hg 1011 hPa